Time;durP1;ratioP1;P1;durP2;ratioP2;P2;SDS_P1;SDS_P2;PMS_P1;PMS_P2;Temp;Humidity;BMP_temperature;BMP_pressure;BME280_temperature;BME280_humidity;BME280_pressure;Samples;Min_cycle;Max_cycle;Signal;HPM_P1;HPM_P2
2022/05/29 00:04:30;;;;;;;8.70;3.80;;;;;;;7.57;71.37;98400.34;219414;1274;22556;-67
2022/05/29 00:09:44;;;;;;;7.80;3.90;;;;;;;7.47;71.57;98400.03;219305;1275;438243;-67
2022/05/29 00:14:49;;;;;;;7.70;4.60;;;;;;;7.33;71.77;98402.36;220045;1274;24931;-66
2022/05/29 00:19:58;;;;;;;8.20;5.10;;;;;;;7.18;72.23;98400.31;219994;1275;22628;-65
2022/05/29 00:25:13;;;;;;;6.40;4.60;;;;;;;7.03;72.62;98396.07;219910;1274;26441;-66
2022/05/29 00:30:16;;;;;;;7.10;4.70;;;;;;;6.92;72.94;98394.89;219492;1274;25242;-66
2022/05/29 00:35:21;;;;;;;7.50;4.60;;;;;;;6.82;73.21;98395.15;219699;1276;22532;-66
2022/05/29 00:40:44;;;;;;;6.00;4.20;;;;;;;6.73;73.55;98391.30;219600;1274;22573;-67
2022/05/29 00:46:09;;;;;;;6.40;4.10;;;;;;;6.62;73.91;98398.53;219609;1277;22625;-66
2022/05/29 00:51:23;;;;;;;;;;;;;;;;;;;;;
2022/05/29 00:56:44;;;;;;;5.50;3.60;;;;;;;6.41;74.41;98395.13;219819;1275;22704;-66
2022/05/29 01:02:34;;;;;;;5.40;3.70;;;;;;;6.32;74.41;98390.77;219499;1275;25293;-67
2022/05/29 01:07:44;;;;;;;;;;;;;;;6.27;74.67;98390.58;219345;1274;22512;-66
2022/05/29 01:13:09;;;;;;;5.50;3.80;;;;;;;6.21;75.06;98382.18;219313;1275;22639;-66
2022/05/29 01:18:12;;;;;;;6.10;4.60;;;;;;;6.14;75.44;98378.05;219606;1274;22522;-66
2022/05/29 01:23:42;;;;;;;5.30;4.20;;;;;;;6.07;75.73;98379.55;219503;1274;22576;-67
2022/05/29 01:29:06;;;;;;;7.90;4.80;;;;;;;5.99;75.91;98375.61;219857;1274;23622;-66
2022/05/29 01:34:11;;;;;;;5.90;4.40;;;;;;;5.93;76.08;98377.03;219753;1274;25377;-66
2022/05/29 01:39:45;;;;;;;9.00;4.60;;;;;;;5.86;76.55;98371.52;219699;1275;22544;-66
2022/05/29 01:44:59;;;;;;;6.10;4.40;;;;;;;5.78;76.42;98369.02;219887;1274;22654;-67
2022/05/29 01:50:19;;;;;;;6.00;4.20;;;;;;;5.70;76.67;98361.15;219481;1274;22538;-66
2022/05/29 01:55:34;;;;;;;6.00;4.60;;;;;;;5.62;76.93;98356.41;219549;1275;22762;-66
2022/05/29 02:00:40;;;;;;;8.00;5.60;;;;;;;5.58;76.96;98368.38;219485;1274;22551;-65
2022/05/29 02:05:50;;;;;;;7.70;5.50;;;;;;;5.55;77.25;98375.17;219713;1274;22564;-67
2022/05/29 02:11:22;;;;;;;8.80;5.20;;;;;;;5.54;77.54;98371.73;219704;1274;22582;-67
2022/05/29 02:16:55;;;;;;;;;;;;;;;;;;;;;
2022/05/29 02:22:17;;;;;;;6.80;4.80;;;;;;;5.47;77.63;98374.53;219555;1278;22582;-65
2022/05/29 02:27:45;;;;;;;6.80;4.70;;;;;;;5.43;77.78;98381.33;219856;1274;22557;-66
2022/05/29 02:33:03;;;;;;;5.80;4.90;;;;;;;5.38;77.59;98381.16;220099;1274;25257;-66
2022/05/29 02:38:40;;;;;;;7.30;4.70;;;;;;;5.33;77.78;98381.79;220288;1274;26514;-66
2022/05/29 02:50:19;;;;;;;7.60;4.60;;;;;;;5.26;78.40;98389.48;219475;1274;25347;-66
2022/05/29 02:56:57;;;;;;;7.90;5.30;;;;;;;5.27;78.40;98393.58;219451;1274;22534;-66
2022/05/29 03:02:41;;;;;;;8.50;5.50;;;;;;;5.28;78.55;98401.59;219437;1274;22719;-66
2022/05/29 03:08:29;;;;;;;7.50;5.40;;;;;;;5.31;78.59;98400.05;220020;1274;22698;-66
2022/05/29 03:14:12;;;;;;;9.70;7.10;;;;;;;5.37;78.76;98401.40;219733;1274;26369;-65
2022/05/29 03:19:41;;;;;;;9.50;7.00;;;;;;;5.44;78.67;98399.77;219339;1275;25832;-66
2022/05/29 03:25:07;;;;;;;8.60;5.70;;;;;;;5.60;78.90;98402.88;219595;1274;25730;-66
2022/05/29 03:30:35;;;;;;;7.40;5.10;;;;;;;5.94;78.91;98405.38;219909;1274;22592;-66
2022/05/29 03:36:03;;;;;;;7.40;5.40;;;;;;;6.31;78.18;98406.33;220050;1274;22577;-67
2022/05/29 03:41:25;;;;;;;11.00;6.20;;;;;;;6.69;77.35;98406.23;220141;1274;24237;-64
2022/05/29 03:46:52;;;;;;;9.30;7.60;;;;;;;7.05;76.65;98400.91;219828;1274;25482;-66
2022/05/29 03:52:08;;;;;;;14.00;9.10;;;;;;;7.41;75.97;98407.05;219481;1274;22478;-66
2022/05/29 03:57:22;;;;;;;;;;;;;;;7.75;75.13;98404.64;219851;1275;22607;-70
2022/05/29 04:14:06;;;;;;;9.40;7.00;;;;;;;7.96;74.73;98412.63;219451;1274;22541;-66
2022/05/29 04:19:26;;;;;;;10.40;6.30;;;;;;;7.87;74.52;98409.66;219278;1277;24227;-66
2022/05/29 04:30:52;;;;;;;9.40;5.90;;;;;;;7.71;75.03;98417.52;219743;1274;24027;-66
2022/05/29 04:36:22;;;;;;;7.80;5.60;;;;;;;7.70;75.07;98418.06;219639;1274;22600;-66
2022/05/29 04:42:06;;;;;;;9.80;5.70;;;;;;;7.78;75.55;98419.70;219763;1274;24743;-65
2022/05/29 04:47:13;;;;;;;7.50;5.90;;;;;;;7.89;75.52;98421.64;219822;1274;25351;-66
2022/05/29 04:52:16;;;;;;;9.10;5.50;;;;;;;8.02;75.83;98426.02;220110;1274;22541;-65
2022/05/29 04:57:18;;;;;;;8.80;5.70;;;;;;;8.15;75.74;98428.95;219818;1273;22618;-66
2022/05/29 05:02:21;;;;;;;10.10;5.60;;;;;;;8.31;75.78;98423.73;219937;1274;22545;-66
2022/05/29 05:07:26;;;;;;;9.90;5.90;;;;;;;8.48;75.84;98417.30;219695;1274;22943;-67
2022/05/29 05:12:42;;;;;;;7.30;5.30;;;;;;;8.65;75.73;98417.49;219871;1273;26530;-66
2022/05/29 05:17:47;;;;;;;9.40;5.40;;;;;;;8.85;75.74;98418.11;219700;1273;24380;-65
2022/05/29 05:22:52;;;;;;;7.40;5.30;;;;;;;9.07;75.82;98415.84;219757;1274;22555;-65
2022/05/29 05:27:54;;;;;;;7.40;5.40;;;;;;;9.28;75.65;98416.19;219829;1274;22623;-66
2022/05/29 05:32:59;;;;;;;7.40;4.30;;;;;;;9.47;75.26;98417.63;219710;1274;24463;-66
2022/05/29 05:38:22;;;;;;;11.10;4.40;;;;;;;9.67;74.91;98415.58;219843;1274;24384;-66
2022/05/29 05:43:28;;;;;;;7.50;3.50;;;;;;;9.86;74.50;98410.90;219872;1274;24238;-67
2022/05/29 05:48:51;;;;;;;5.30;2.80;;;;;;;10.08;74.14;98415.38;219308;1274;22575;-67
2022/05/29 05:54:34;;;;;;;;;;;;;;;;;;;;;
2022/05/29 05:59:43;;;;;;;3.30;1.70;;;;;;;10.54;72.84;98419.41;219601;1274;22560;-66
2022/05/29 06:04:46;;;;;;;5.20;2.00;;;;;;;10.74;72.37;98424.54;219579;1274;24318;-66
2022/05/29 06:10:02;;;;;;;5.70;1.90;;;;;;;10.97;72.08;98422.31;219501;1274;22538;-67
2022/05/29 06:15:19;;;;;;;4.20;1.70;;;;;;;11.15;71.11;98420.30;219770;1274;22562;-65
2022/05/29 06:20:27;;;;;;;3.80;1.90;;;;;;;11.24;69.82;98416.99;219552;1274;22919;-66
2022/05/29 06:25:30;;;;;;;4.50;1.80;;;;;;;11.37;69.79;98418.64;220088;1274;22570;-66
2022/05/29 06:30:33;;;;;;;4.50;1.70;;;;;;;11.55;69.20;98424.43;219994;1273;22705;-65
2022/05/29 06:35:35;;;;;;;3.80;1.70;;;;;;;11.62;68.00;98422.00;219734;1274;22554;-66
2022/05/29 06:40:49;;;;;;;9.70;2.40;;;;;;;11.74;67.52;98425.48;219374;1274;22548;-67
2022/05/29 06:46:15;;;;;;;3.90;1.30;;;;;;;11.91;67.41;98422.57;219639;1273;23116;-66
2022/05/29 06:51:22;;;;;;;4.60;1.60;;;;;;;12.14;67.16;98419.58;219600;1273;25258;-66
2022/05/29 06:56:25;;;;;;;3.50;1.30;;;;;;;12.37;66.79;98417.96;219628;1274;22488;-65
2022/05/29 07:07:16;;;;;;;2.80;1.20;;;;;;;12.97;64.80;98418.29;219443;1274;23821;-66
2022/05/29 07:12:32;;;;;;;4.60;1.40;;;;;;;13.27;63.93;98412.74;219658;1274;22585;-67
2022/05/29 07:17:38;;;;;;;3.20;1.60;;;;;;;13.45;63.46;98402.90;219825;1274;25484;-65
2022/05/29 07:23:04;;;;;;;3.60;1.70;;;;;;;13.60;62.83;98390.78;219508;1274;22539;-65
2022/05/29 07:28:55;;;;;;;4.30;1.50;;;;;;;13.82;62.22;98388.98;219625;1273;23946;-66
2022/05/29 07:34:24;;;;;;;3.10;1.40;;;;;;;13.94;60.83;98387.31;219710;1273;22553;-66
2022/05/29 07:39:56;;;;;;;3.70;1.50;;;;;;;14.10;60.33;98385.50;219764;1273;23348;-66
2022/05/29 07:45:07;;;;;;;4.10;1.50;;;;;;;14.42;60.49;98384.07;219603;1273;26440;-68
2022/05/29 07:50:27;;;;;;;3.90;1.80;;;;;;;14.72;59.00;98387.43;219931;1274;22618;-67
2022/05/29 07:55:48;;;;;;;3.30;1.60;;;;;;;14.92;58.73;98393.83;219819;1273;25260;-65
2022/05/29 08:01:06;;;;;;;2.30;1.40;;;;;;;15.01;58.03;98385.84;219498;1273;25254;-66
2022/05/29 08:06:26;;;;;;;4.90;1.30;;;;;;;15.03;57.89;98382.30;219687;1273;22676;-66
2022/05/29 08:11:29;;;;;;;2.10;1.10;;;;;;;15.52;58.09;98379.47;219789;1274;24036;-66
2022/05/29 08:16:43;;;;;;;3.20;1.30;;;;;;;16.20;56.61;98386.70;219441;1273;25400;-66
2022/05/29 08:21:48;;;;;;;3.30;1.20;;;;;;;16.48;54.99;98379.81;219237;1274;23226;-67
2022/05/29 08:32:51;;;;;;;2.60;1.00;;;;;;;16.98;53.44;98376.61;219545;1274;24340;-66
2022/05/29 08:38:18;;;;;;;3.90;1.80;;;;;;;16.97;53.14;98386.69;219624;1274;24210;-69
2022/05/29 08:43:38;;;;;;;9.50;4.60;;;;;;;16.72;52.70;98382.82;219208;1275;22540;-67
2022/05/29 08:49:05;;;;;;;3.70;1.80;;;;;;;16.31;52.57;98379.89;219646;1273;25403;-67
2022/05/29 08:54:17;;;;;;;3.70;1.20;;;;;;;16.40;52.96;98376.07;219594;1273;22527;-67
2022/05/29 08:59:44;;;;;;;3.80;1.50;;;;;;;16.68;52.83;98370.71;219598;1273;22717;-67
2022/05/29 09:05:38;;;;;;;2.80;1.00;;;;;;;16.92;51.21;98369.08;219751;1273;22537;-66
2022/05/29 09:10:59;;;;;;;1.40;1.00;;;;;;;17.15;51.75;98359.16;219829;1273;22560;-70
2022/05/29 09:16:30;;;;;;;3.00;1.10;;;;;;;17.34;50.15;98356.23;220312;1273;23932;-66
2022/05/29 09:27:46;;;;;;;3.80;1.70;;;;;;;17.54;49.46;98351.83;219964;1273;22587;-67
2022/05/29 09:39:22;;;;;;;;;;;;;;;;;;;;;
2022/05/29 09:45:12;;;;;;;;;;;;;;;;;;;;;
2022/05/29 09:51:32;;;;;;;4.00;1.80;;;;;;;17.41;48.72;98331.60;220037;1273;24444;-67
2022/05/29 09:57:53;;;;;;;3.00;1.40;;;;;;;17.88;48.15;98327.03;219395;1274;22550;-66
2022/05/29 10:03:39;;;;;;;2.80;1.60;;;;;;;18.12;48.29;98323.77;219861;1274;22763;-66
2022/05/29 10:09:34;;;;;;;2.30;1.20;;;;;;;18.18;46.93;98333.02;219873;1274;22534;-67
2022/05/29 10:15:21;;;;;;;3.10;1.10;;;;;;;18.26;47.46;98337.67;219199;1276;22604;-66
2022/05/29 10:20:59;;;;;;;;;;;;;;;;;;;;;
2022/05/29 10:27:22;;;;;;;1.70;0.80;;;;;;;18.12;46.07;98335.50;219778;1274;24217;-67
2022/05/29 10:32:35;;;;;;;2.40;1.20;;;;;;;18.19;45.64;98346.20;219802;1273;22766;-67
2022/05/29 10:37:43;;;;;;;3.00;1.40;;;;;;;18.19;45.48;98347.83;220012;1273;22560;-66
2022/05/29 10:48:54;;;;;;;3.50;1.20;;;;;;;18.51;44.94;98334.64;219667;1274;24416;-67
2022/05/29 10:54:14;;;;;;;3.50;1.30;;;;;;;18.85;44.46;98319.92;219584;1273;22553;-67
2022/05/29 11:00:00;;;;;;;3.00;1.20;;;;;;;19.24;44.26;98319.88;220062;1274;22556;-67
2022/05/29 11:05:39;;;;;;;3.40;1.80;;;;;;;19.25;43.13;98324.48;219412;1276;25255;-66
2022/05/29 11:11:10;;;;;;;3.60;1.30;;;;;;;19.21;42.77;98320.91;220005;1273;22783;-66
2022/05/29 11:16:29;;;;;;;1.10;1.00;;;;;;;19.46;43.31;98316.42;220085;1273;24336;-67
2022/05/29 11:22:22;;;;;;;2.90;1.20;;;;;;;20.18;43.59;98318.90;220118;1273;24445;-67
2022/05/29 11:27:52;;;;;;;2.40;1.60;;;;;;;20.99;42.88;98316.77;219658;1273;25338;-68
2022/05/29 11:33:36;;;;;;;3.20;1.10;;;;;;;21.24;40.55;98304.87;219539;1274;22540;-67
2022/05/29 11:39:07;;;;;;;1.70;0.80;;;;;;;21.21;40.21;98279.23;219160;1274;22639;-67
2022/05/29 11:45:00;;;;;;;2.60;1.50;;;;;;;20.87;40.36;98263.11;219876;1273;25249;-67
2022/05/29 11:55:50;;;;;;;2.50;1.80;;;;;;;20.54;40.21;98234.73;219746;1273;22534;-66
2022/05/29 12:00:59;;;;;;;3.30;1.00;;;;;;;20.47;39.80;98232.38;220109;1274;22691;-66
2022/05/29 12:06:14;;;;;;;4.10;1.50;;;;;;;20.33;38.58;98231.88;219728;1273;22605;-67
2022/05/29 12:11:48;;;;;;;1.30;0.90;;;;;;;20.03;38.00;98231.19;219086;1273;450865;-66
2022/05/29 12:16:56;;;;;;;1.50;0.80;;;;;;;20.06;38.57;98228.66;219539;1274;24279;-67
2022/05/29 12:22:11;;;;;;;1.00;0.70;;;;;;;20.12;37.78;98220.70;219461;1276;25319;-67
2022/05/29 12:27:19;;;;;;;1.00;0.70;;;;;;;20.18;37.89;98215.02;219786;1273;22562;-66
2022/05/29 12:32:32;;;;;;;2.00;0.70;;;;;;;20.41;38.60;98220.10;219533;1274;26303;-67
2022/05/29 12:38:12;;;;;;;1.30;0.70;;;;;;;20.65;38.24;98224.31;219597;1273;25452;-66
2022/05/29 12:43:34;;;;;;;0.90;0.60;;;;;;;20.59;36.78;98232.23;219878;1273;22560;-66
2022/05/29 12:49:15;;;;;;;0.70;0.50;;;;;;;20.43;35.87;98226.73;219674;1274;22623;-67
2022/05/29 12:54:34;;;;;;;1.90;1.10;;;;;;;20.50;36.67;98227.85;219861;1273;24750;-66
2022/05/29 13:00:13;;;;;;;2.40;1.50;;;;;;;20.78;36.62;98229.00;219715;1273;22615;-66
2022/05/29 13:05:51;;;;;;;3.30;1.10;;;;;;;21.14;36.11;98224.38;219671;1273;22951;-67
2022/05/29 13:11:04;;;;;;;5.50;3.80;;;;;;;21.47;37.11;98223.16;219607;1273;22645;-66
2022/05/29 13:16:25;;;;;;;3.00;2.10;;;;;;;21.76;36.52;98221.27;219805;1273;22551;-67
2022/05/29 13:21:47;;;;;;;2.40;1.30;;;;;;;21.72;37.08;98210.41;219317;1276;22585;-68
2022/05/29 13:27:11;;;;;;;3.00;1.40;;;;;;;21.56;36.97;98208.08;219767;1273;22609;-71
2022/05/29 13:32:13;;;;;;;3.70;1.90;;;;;;;21.26;36.59;98211.27;220047;1275;24231;-67
2022/05/29 13:37:38;;;;;;;1.70;1.40;;;;;;;20.93;36.61;98209.13;219421;1273;22690;-66
2022/05/29 13:42:50;;;;;;;2.50;1.60;;;;;;;20.59;36.63;98211.02;219266;1274;22567;-67
2022/05/29 13:48:06;;;;;;;1.70;1.40;;;;;;;20.24;36.98;98210.30;219754;1273;22567;-66
2022/05/29 13:53:43;;;;;;;2.00;1.30;;;;;;;20.04;37.63;98205.89;219860;1274;23089;-67
2022/05/29 14:04:54;;;;;;;2.00;1.30;;;;;;;19.78;38.34;98195.62;219130;1274;25318;-67
2022/05/29 14:10:03;;;;;;;2.20;1.10;;;;;;;19.66;38.32;98195.09;219148;1274;24473;-66
2022/05/29 14:15:49;;;;;;;;;;;;;;;;;;;;;
2022/05/29 14:20:52;;;;;;;3.40;1.10;;;;;;;19.46;38.59;98192.34;219778;1274;24332;-66
2022/05/29 14:26:13;;;;;;;2.00;0.80;;;;;;;19.55;38.51;98183.56;219569;1274;24386;-67
2022/05/29 14:31:45;;;;;;;2.40;1.20;;;;;;;19.60;38.68;98175.12;219692;1274;24226;-66
2022/05/29 14:37:22;;;;;;;1.70;1.20;;;;;;;19.80;38.58;98171.02;219839;1274;25432;-66
2022/05/29 14:43:05;;;;;;;3.20;2.00;;;;;;;19.90;38.64;98172.83;219709;1273;22619;-66
2022/05/29 14:48:30;;;;;;;2.30;1.30;;;;;;;20.20;38.76;98173.48;219798;1274;24980;-66
2022/05/29 14:54:24;;;;;;;1.90;1.40;;;;;;;20.30;38.33;98169.43;219733;1274;22564;-67
2022/05/29 15:00:12;;;;;;;2.40;1.20;;;;;;;20.40;38.35;98172.13;219901;1274;24201;-66
2022/05/29 15:05:18;;;;;;;2.00;1.30;;;;;;;20.48;38.01;98159.09;220259;1274;25419;-66
2022/05/29 15:10:35;;;;;;;2.70;1.10;;;;;;;20.38;37.92;98159.59;219860;1274;22545;-67
2022/05/29 15:15:56;;;;;;;4.30;1.60;;;;;;;20.45;37.79;98152.14;220319;1274;22608;-67
2022/05/29 15:26:54;;;;;;;3.20;1.90;;;;;;;20.18;38.03;98149.00;219592;1274;22558;-66
2022/05/29 15:32:08;;;;;;;2.00;1.60;;;;;;;19.99;38.20;98152.69;219343;1274;25321;-67
2022/05/29 15:37:24;;;;;;;3.60;1.30;;;;;;;19.89;38.36;98149.83;219464;1274;22581;-67
2022/05/29 15:42:42;;;;;;;3.70;2.70;;;;;;;19.70;38.18;98141.91;219430;1274;22551;-68
2022/05/29 15:48:15;;;;;;;2.80;1.50;;;;;;;19.61;38.02;98135.55;219797;1273;22533;-67
2022/05/29 15:53:29;;;;;;;3.40;1.60;;;;;;;19.48;37.70;98130.69;220151;1274;24239;-67
2022/05/29 15:59:19;;;;;;;2.60;1.30;;;;;;;19.33;37.94;98123.93;219706;1274;26439;-66
2022/05/29 16:04:43;;;;;;;2.20;1.20;;;;;;;19.40;38.37;98126.36;219205;1276;24268;-67
2022/05/29 16:10:00;;;;;;;3.70;3.00;;;;;;;19.35;38.20;98124.27;219609;1274;22700;-67
2022/05/29 16:15:06;;;;;;;1.70;1.40;;;;;;;19.19;38.10;98120.76;219565;1274;25372;-66
2022/05/29 16:20:22;;;;;;;2.00;1.20;;;;;;;19.06;38.56;98127.88;219696;1273;26395;-66
2022/05/29 16:25:33;;;;;;;1.20;1.00;;;;;;;18.96;38.69;98120.19;220029;1274;24151;-66
2022/05/29 16:31:08;;;;;;;2.20;1.60;;;;;;;18.72;38.10;98115.83;219629;1274;25356;-67
2022/05/29 16:36:22;;;;;;;3.30;1.30;;;;;;;18.53;38.53;98112.30;219669;1274;22638;-68
2022/05/29 16:53:13;;;;;;;4.30;3.10;;;;;;;17.92;39.41;98113.80;219476;1273;22553;-66
2022/05/29 16:58:34;;;;;;;3.40;1.60;;;;;;;17.72;39.88;98118.59;219490;1276;22733;-67
2022/05/29 17:03:48;;;;;;;2.90;1.10;;;;;;;17.46;40.62;98114.59;220155;1274;25268;-67
2022/05/29 17:09:29;;;;;;;1.60;1.00;;;;;;;17.12;41.05;98099.45;219723;1273;25365;-66
2022/05/29 17:14:38;;;;;;;2.70;1.10;;;;;;;16.85;41.72;98096.58;219405;1274;24188;-66
2022/05/29 17:19:50;;;;;;;2.70;1.30;;;;;;;16.65;42.35;98097.36;219607;1274;22565;-67
2022/05/29 17:30:24;;;;;;;1.60;1.20;;;;;;;16.39;43.34;98099.27;219386;1274;24318;-66
2022/05/29 17:35:40;;;;;;;2.40;1.70;;;;;;;16.30;43.64;98096.16;219562;1274;23193;-67
2022/05/29 17:41:18;;;;;;;4.40;1.90;;;;;;;16.17;43.73;98100.34;219557;1276;22767;-66
2022/05/29 17:52:04;;;;;;;4.00;2.10;;;;;;;15.89;43.17;98109.86;219435;1277;22534;-66
2022/05/29 17:57:15;;;;;;;4.60;2.80;;;;;;;15.74;43.29;98116.85;219361;1274;22992;-67
2022/05/29 18:02:21;;;;;;;3.10;1.70;;;;;;;15.54;44.06;98122.63;219368;1274;25323;-69
2022/05/29 18:07:53;;;;;;;3.10;1.40;;;;;;;15.09;45.83;98127.95;219095;1276;22703;-68
2022/05/29 18:12:55;;;;;;;3.00;1.90;;;;;;;14.65;47.71;98131.75;219265;1276;22557;-67
2022/05/29 18:18:08;;;;;;;2.50;1.70;;;;;;;14.13;49.90;98135.70;219337;1275;25462;-69
2022/05/29 18:23:10;;;;;;;2.30;1.70;;;;;;;13.79;50.27;98139.79;219677;1274;25259;-68
2022/05/29 18:28:16;;;;;;;2.40;1.50;;;;;;;13.62;51.26;98147.87;219331;1273;25357;-67
2022/05/29 18:33:19;;;;;;;2.90;1.90;;;;;;;13.43;52.02;98149.36;219484;1274;22573;-67
2022/05/29 18:38:45;;;;;;;4.00;2.30;;;;;;;13.25;53.22;98154.09;219483;1274;24243;-67
2022/05/29 18:43:47;;;;;;;3.50;2.00;;;;;;;13.04;53.97;98160.23;219628;1274;25316;-69
2022/05/29 18:48:50;;;;;;;3.40;2.00;;;;;;;12.85;54.78;98160.38;219442;1274;25355;-67
2022/05/29 18:53:52;;;;;;;3.10;2.10;;;;;;;12.65;55.66;98165.60;219484;1275;22607;-67
2022/05/29 18:59:01;;;;;;;3.60;1.80;;;;;;;12.46;56.93;98170.58;219538;1275;22545;-69
2022/05/29 19:04:20;;;;;;;3.80;2.00;;;;;;;12.29;57.08;98174.73;219510;1275;24230;-68
2022/05/29 19:09:30;;;;;;;3.70;2.40;;;;;;;12.14;57.92;98170.58;219716;1274;26446;-68
2022/05/29 19:14:33;;;;;;;4.30;2.50;;;;;;;12.01;59.01;98168.05;219847;1274;25322;-67
2022/05/29 19:19:47;;;;;;;4.50;3.20;;;;;;;11.88;59.95;98171.73;219981;1274;22541;-66
2022/05/29 19:25:21;;;;;;;4.20;2.80;;;;;;;11.76;60.76;98177.83;219964;1275;22725;-67
2022/05/29 19:30:43;;;;;;;4.50;2.80;;;;;;;11.66;61.62;98178.45;219806;1275;22659;-67
2022/05/29 19:35:46;;;;;;;4.00;3.00;;;;;;;11.59;62.10;98173.98;219728;1277;22554;-67
2022/05/29 19:40:53;;;;;;;4.20;2.80;;;;;;;11.55;62.78;98171.19;219878;1274;22559;-67
2022/05/29 19:46:00;;;;;;;5.80;3.00;;;;;;;11.51;63.50;98167.12;219897;1275;22626;-66
2022/05/29 19:51:03;;;;;;;5.20;3.50;;;;;;;11.45;64.14;98162.76;220007;1275;22709;-66
2022/05/29 19:56:10;;;;;;;5.10;3.30;;;;;;;11.38;64.71;98163.16;219645;1274;24332;-66
2022/05/29 20:01:23;;;;;;;5.60;3.60;;;;;;;11.30;65.35;98164.59;219790;1275;25447;-66
2022/05/29 20:06:28;;;;;;;6.20;3.50;;;;;;;11.23;66.30;98169.45;220228;1274;22600;-67
2022/05/29 20:11:38;;;;;;;5.40;3.50;;;;;;;11.15;66.91;98168.46;219476;1274;22557;-69
2022/05/29 20:16:46;;;;;;;7.90;4.20;;;;;;;11.07;68.05;98174.45;219539;1275;22606;-67
2022/05/29 20:21:54;;;;;;;5.10;4.00;;;;;;;10.98;68.95;98176.77;219738;1275;22575;-67
2022/05/29 20:27:01;;;;;;;6.20;4.10;;;;;;;10.91;69.49;98172.97;219398;1274;24247;-67
2022/05/29 20:32:04;;;;;;;6.90;4.40;;;;;;;10.87;69.90;98172.63;219547;1277;22622;-67
2022/05/29 20:37:07;;;;;;;26.00;23.20;;;;;;;10.88;70.17;98166.33;219534;1274;24372;-66
2022/05/29 20:42:12;;;;;;;29.50;26.30;;;;;;;10.90;70.55;98172.79;219235;1275;22577;-67
2022/05/29 20:47:23;;;;;;;22.30;20.00;;;;;;;10.92;71.03;98172.95;219684;1274;22749;-67
2022/05/29 20:52:27;;;;;;;11.40;8.70;;;;;;;10.93;70.51;98175.54;219556;1275;22590;-67
2022/05/29 20:57:32;;;;;;;7.20;5.50;;;;;;;10.92;70.52;98175.25;219582;1275;24416;-67
2022/05/29 21:02:35;;;;;;;14.60;13.00;;;;;;;10.89;70.63;98173.22;219455;1274;24329;-67
2022/05/29 21:07:40;;;;;;;16.60;15.20;;;;;;;10.86;70.95;98155.06;219761;1274;24367;-67
2022/05/29 21:12:43;;;;;;;25.60;23.20;;;;;;;10.82;71.29;98146.59;219568;1275;22555;-67
2022/05/29 21:17:58;;;;;;;11.60;9.20;;;;;;;10.78;71.75;98144.39;219918;1274;22557;-66
2022/05/29 21:23:00;;;;;;;10.20;9.20;;;;;;;10.71;72.22;98142.14;219691;1274;22560;-66
2022/05/29 21:28:06;;;;;;;7.00;6.10;;;;;;;10.64;72.49;98143.44;220130;1274;26401;-67
2022/05/29 21:33:08;;;;;;;10.60;5.30;;;;;;;10.57;73.19;98140.74;219291;1274;22648;-66
2022/05/29 21:38:18;;;;;;;4.70;4.30;;;;;;;10.51;73.67;98130.73;219622;1274;22562;-68
2022/05/29 21:43:21;;;;;;;6.20;5.00;;;;;;;10.41;74.06;98117.99;219689;1274;22698;-67
2022/05/29 21:48:42;;;;;;;7.70;4.30;;;;;;;10.30;74.56;98123.34;219697;1275;22569;-67
2022/05/29 21:54:11;;;;;;;12.30;10.40;;;;;;;10.19;75.27;98132.36;219246;1277;22540;-66
2022/05/29 21:59:16;;;;;;;14.80;13.00;;;;;;;10.13;75.88;98127.23;219380;1274;24322;-68
2022/05/29 22:04:50;;;;;;;14.90;12.90;;;;;;;10.08;76.48;98117.80;219540;1274;25264;-67
2022/05/29 22:10:00;;;;;;;12.50;9.50;;;;;;;10.05;76.71;98115.11;219677;1274;24225;-67
2022/05/29 22:15:12;;;;;;;13.00;9.20;;;;;;;10.02;77.07;98123.05;219763;1274;24224;-66
2022/05/29 22:20:17;;;;;;;9.80;7.80;;;;;;;9.99;77.57;98127.59;219644;1274;22746;-66
2022/05/29 22:26:02;;;;;;;12.30;7.60;;;;;;;9.96;77.84;98133.23;219594;1274;22547;-67
2022/05/29 22:31:50;;;;;;;9.10;7.10;;;;;;;9.93;78.01;98135.26;219436;1274;22547;-67
2022/05/29 22:37:47;;;;;;;;;;;;;;;;;;;;;
2022/05/29 22:43:21;;;;;;;8.90;6.70;;;;;;;9.71;78.23;98128.20;219881;1274;22566;-67
2022/05/29 22:48:45;;;;;;;9.30;6.00;;;;;;;9.60;78.57;98124.30;219613;1274;22553;-67
2022/05/29 22:54:24;;;;;;;;;;;;;;;;;;;;;
2022/05/29 22:59:33;;;;;;;9.20;5.60;;;;;;;9.42;79.33;98122.35;219615;1274;25301;-67
2022/05/29 23:04:59;;;;;;;6.50;5.70;;;;;;;9.38;79.52;98120.08;219424;1273;25240;-68
2022/05/29 23:10:12;;;;;;;6.60;5.30;;;;;;;9.32;79.94;98121.41;219610;1274;25432;-68
2022/05/29 23:15:14;;;;;;;8.00;5.00;;;;;;;9.31;80.19;98118.77;219703;1274;22601;-69
2022/05/29 23:20:22;;;;;;;6.60;4.70;;;;;;;9.29;80.63;98104.85;219506;1273;25264;-68
2022/05/29 23:25:33;;;;;;;9.60;5.10;;;;;;;9.26;81.08;98107.73;219714;1274;25257;-70
2022/05/29 23:30:52;;;;;;;6.70;5.10;;;;;;;9.21;81.28;98109.42;219409;1276;22538;-70
2022/05/29 23:36:12;;;;;;;;;;;;;;;;;;;;;
2022/05/29 23:47:07;;;;;;;5.90;5.30;;;;;;;9.15;81.76;98122.32;219766;1274;24298;-70
2022/05/29 23:52:36;;;;;;;12.50;5.50;;;;;;;9.14;81.89;98124.15;219529;1276;22711;-71
2022/05/29 23:57:55;;;;;;;6.70;4.90;;;;;;;9.13;81.99;98122.83;219868;1274;25369;-70
